sensor_id;sensor_type;location;lat;lon;timestamp;pressure;altitude;pressure_sealevel;temperature;humidity
11017;BME280;54687;50.800;6.772;2023-01-28T00:00:14;61210.31;;;-144.06;57.58
11017;BME280;54687;50.800;6.772;2023-01-28T00:02:42;61248.03;;;-144.06;57.63
11017;BME280;54687;50.800;6.772;2023-01-28T00:05:09;61235.47;;;-144.06;57.88
11017;BME280;54687;50.800;6.772;2023-01-28T00:07:36;61239.66;;;-144.06;57.81
11017;BME280;54687;50.800;6.772;2023-01-28T00:10:03;61214.50;;;-144.06;58.16
11017;BME280;54687;50.800;6.772;2023-01-28T00:12:30;61227.06;;;-144.06;58.17
11017;BME280;54687;50.800;6.772;2023-01-28T00:14:56;61227.06;;;-144.06;58.17
11017;BME280;54687;50.800;6.772;2023-01-28T00:17:23;61212.41;;;-144.06;58.10
11017;BME280;54687;50.800;6.772;2023-01-28T00:19:51;61243.84;;;-144.06;57.95
11017;BME280;54687;50.800;6.772;2023-01-28T00:22:17;61243.84;;;-144.06;57.61
11017;BME280;54687;50.800;6.772;2023-01-28T00:24:44;61302.53;;;-144.06;57.58
11017;BME280;54687;50.800;6.772;2023-01-28T00:27:11;61227.06;;;-144.06;58.03
11017;BME280;54687;50.800;6.772;2023-01-28T00:29:37;61201.91;;;-144.06;57.34
11017;BME280;54687;50.800;6.772;2023-01-28T00:32:04;61222.88;;;-144.06;57.39
11017;BME280;54687;50.800;6.772;2023-01-28T00:34:31;61260.63;;;-144.06;57.78
11017;BME280;54687;50.800;6.772;2023-01-28T00:36:59;61233.38;;;-144.06;57.51
11017;BME280;54687;50.800;6.772;2023-01-28T00:39:26;61208.22;;;-144.06;57.84
11017;BME280;54687;50.800;6.772;2023-01-28T00:41:53;61260.63;;;-144.06;57.61
11017;BME280;54687;50.800;6.772;2023-01-28T00:44:19;61214.50;;;-144.06;57.52
11017;BME280;54687;50.800;6.772;2023-01-28T00:46:46;61189.34;;;-144.06;58.17
11017;BME280;54687;50.800;6.772;2023-01-28T00:49:13;61214.50;;;-144.06;57.99
11017;BME280;54687;50.800;6.772;2023-01-28T00:51:40;61189.34;;;-144.06;57.91
11017;BME280;54687;50.800;6.772;2023-01-28T00:54:10;61254.31;;;-144.06;58.03
11017;BME280;54687;50.800;6.772;2023-01-28T00:56:37;61258.53;;;-144.06;58.17
11017;BME280;54687;50.800;6.772;2023-01-28T00:59:04;61222.88;;;-144.06;58.10
11017;BME280;54687;50.800;6.772;2023-01-28T01:01:31;61216.59;;;-144.06;58.80
11017;BME280;54687;50.800;6.772;2023-01-28T01:03:58;61260.63;;;-144.06;58.58
11017;BME280;54687;50.800;6.772;2023-01-28T01:06:29;61245.94;;;-144.06;58.83
11017;BME280;54687;50.800;6.772;2023-01-28T01:08:56;61258.53;;;-144.06;58.93
11017;BME280;54687;50.800;6.772;2023-01-28T01:11:24;61222.88;;;-144.06;59.17
11017;BME280;54687;50.800;6.772;2023-01-28T01:13:52;61248.03;;;-144.06;59.11
11017;BME280;54687;50.800;6.772;2023-01-28T01:16:22;61243.84;;;-144.06;59.80
11017;BME280;54687;50.800;6.772;2023-01-28T01:18:50;61222.88;;;-144.06;59.72
11017;BME280;54687;50.800;6.772;2023-01-28T01:21:18;61218.69;;;-144.06;59.42
11017;BME280;54687;50.800;6.772;2023-01-28T01:23:45;61216.59;;;-144.06;59.55
11017;BME280;54687;50.800;6.772;2023-01-28T01:26:13;61214.50;;;-144.06;59.40
11017;BME280;54687;50.800;6.772;2023-01-28T01:28:42;61199.81;;;-144.06;59.13
11017;BME280;54687;50.800;6.772;2023-01-28T01:31:11;61197.72;;;-144.06;59.51
11017;BME280;54687;50.800;6.772;2023-01-28T01:33:39;61231.25;;;-144.06;58.92
11017;BME280;54687;50.800;6.772;2023-01-28T01:36:07;61210.31;;;-144.06;58.79
11017;BME280;54687;50.800;6.772;2023-01-28T01:38:35;61224.97;;;-144.06;58.93
11017;BME280;54687;50.800;6.772;2023-01-28T01:41:04;61252.22;;;-144.06;59.15
11017;BME280;54687;50.800;6.772;2023-01-28T01:43:47;61220.78;;;-144.06;58.96
11017;BME280;54687;50.800;6.772;2023-01-28T01:46:16;61227.06;;;-144.06;58.44
11017;BME280;54687;50.800;6.772;2023-01-28T01:48:45;61218.69;;;-144.06;58.66
11017;BME280;54687;50.800;6.772;2023-01-28T01:51:14;61210.31;;;-144.06;58.93
11017;BME280;54687;50.800;6.772;2023-01-28T01:53:45;61248.03;;;-144.06;58.54
11017;BME280;54687;50.800;6.772;2023-01-28T01:56:16;61260.63;;;-144.06;58.52
11017;BME280;54687;50.800;6.772;2023-01-28T01:58:49;61172.56;;;-144.06;58.31
11017;BME280;54687;50.800;6.772;2023-01-28T02:01:20;61210.31;;;-144.06;58.46
11017;BME280;54687;50.800;6.772;2023-01-28T02:03:52;61227.06;;;-144.06;58.66
11017;BME280;54687;50.800;6.772;2023-01-28T02:06:21;61197.72;;;-144.06;58.62
11017;BME280;54687;50.800;6.772;2023-01-28T02:08:48;61218.69;;;-144.06;58.03
11017;BME280;54687;50.800;6.772;2023-01-28T02:11:16;61239.66;;;-144.06;58.83
11017;BME280;54687;50.800;6.772;2023-01-28T02:13:48;61252.22;;;-144.06;58.53
11017;BME280;54687;50.800;6.772;2023-01-28T02:16:16;61208.22;;;-144.06;58.79
11017;BME280;54687;50.800;6.772;2023-01-28T02:18:43;61227.06;;;-144.06;58.96
11017;BME280;54687;50.800;6.772;2023-01-28T02:24:18;61218.69;;;-144.06;58.68
11017;BME280;54687;50.800;6.772;2023-01-28T02:27:01;61231.25;;;-144.06;58.43
11017;BME280;54687;50.800;6.772;2023-01-28T02:29:42;61222.88;;;-144.06;58.25
11017;BME280;54687;50.800;6.772;2023-01-28T02:32:14;61248.03;;;-144.06;57.87
11017;BME280;54687;50.800;6.772;2023-01-28T02:34:46;61208.22;;;-144.06;57.84
11017;BME280;54687;50.800;6.772;2023-01-28T02:37:20;61250.13;;;-144.06;57.72
11017;BME280;54687;50.800;6.772;2023-01-28T02:39:49;61178.84;;;-144.06;58.19
11017;BME280;54687;50.800;6.772;2023-01-28T02:42:19;61185.16;;;-144.06;57.90
11017;BME280;54687;50.800;6.772;2023-01-28T02:44:49;61237.56;;;-144.06;58.25
11017;BME280;54687;50.800;6.772;2023-01-28T02:47:15;61201.91;;;-144.06;58.10
11017;BME280;54687;50.800;6.772;2023-01-28T02:50:01;61208.22;;;-144.06;58.37
11017;BME280;54687;50.800;6.772;2023-01-28T02:52:39;61208.22;;;-144.06;58.35
11017;BME280;54687;50.800;6.772;2023-01-28T02:55:32;61239.66;;;-144.06;58.14
11017;BME280;54687;50.800;6.772;2023-01-28T02:58:07;61231.25;;;-144.06;58.66
11017;BME280;54687;50.800;6.772;2023-01-28T03:00:44;61224.97;;;-144.06;58.68
11017;BME280;54687;50.800;6.772;2023-01-28T03:03:15;61227.06;;;-144.06;58.68
11017;BME280;54687;50.800;6.772;2023-01-28T03:05:47;61185.16;;;-144.06;58.67
11017;BME280;54687;50.800;6.772;2023-01-28T03:08:33;61218.69;;;-144.06;58.75
11017;BME280;54687;50.800;6.772;2023-01-28T03:11:19;61229.16;;;-144.06;58.46
11017;BME280;54687;50.800;6.772;2023-01-28T03:14:04;61214.50;;;-144.06;58.28
11017;BME280;54687;50.800;6.772;2023-01-28T03:16:50;61237.56;;;-144.06;58.67
11017;BME280;54687;50.800;6.772;2023-01-28T03:19:36;61252.22;;;-144.06;58.43
11017;BME280;54687;50.800;6.772;2023-01-28T03:22:21;61231.25;;;-144.06;58.47
11017;BME280;54687;50.800;6.772;2023-01-28T03:25:07;61201.91;;;-144.06;58.41
11017;BME280;54687;50.800;6.772;2023-01-28T03:27:58;61231.25;;;-144.06;58.49
11017;BME280;54687;50.800;6.772;2023-01-28T03:30:50;61227.06;;;-144.06;58.44
11017;BME280;54687;50.800;6.772;2023-01-28T03:33:39;61237.56;;;-144.06;58.48
11017;BME280;54687;50.800;6.772;2023-01-28T03:36:25;61264.81;;;-144.06;58.59
11017;BME280;54687;50.800;6.772;2023-01-28T03:39:08;61233.38;;;-144.06;58.49
11017;BME280;54687;50.800;6.772;2023-01-28T03:41:35;61210.31;;;-144.06;58.59
11017;BME280;54687;50.800;6.772;2023-01-28T03:44:02;61218.69;;;-144.06;58.51
11017;BME280;54687;50.800;6.772;2023-01-28T03:46:46;61239.66;;;-144.06;58.30
11017;BME280;54687;50.800;6.772;2023-01-28T03:49:14;61237.56;;;-144.06;58.52
11017;BME280;54687;50.800;6.772;2023-01-28T03:51:41;61239.66;;;-144.06;58.79
11017;BME280;54687;50.800;6.772;2023-01-28T03:54:08;61212.41;;;-144.06;58.55
11017;BME280;54687;50.800;6.772;2023-01-28T03:56:34;61204.00;;;-144.06;58.30
11017;BME280;54687;50.800;6.772;2023-01-28T03:59:04;61262.72;;;-144.06;58.06
11017;BME280;54687;50.800;6.772;2023-01-28T04:01:31;61252.22;;;-144.06;58.57
11017;BME280;54687;50.800;6.772;2023-01-28T04:03:57;61214.50;;;-144.06;58.77
11017;BME280;54687;50.800;6.772;2023-01-28T04:06:25;61214.50;;;-144.06;58.54
11017;BME280;54687;50.800;6.772;2023-01-28T04:08:53;61180.97;;;-144.06;58.52
11017;BME280;54687;50.800;6.772;2023-01-28T04:11:23;61262.72;;;-144.06;58.56
11017;BME280;54687;50.800;6.772;2023-01-28T04:13:51;61239.66;;;-144.06;58.43
11017;BME280;54687;50.800;6.772;2023-01-28T04:16:18;61248.03;;;-144.06;58.57
11017;BME280;54687;50.800;6.772;2023-01-28T04:18:45;61243.84;;;-144.06;58.25
11017;BME280;54687;50.800;6.772;2023-01-28T04:21:12;61231.25;;;-144.06;58.35
11017;BME280;54687;50.800;6.772;2023-01-28T04:23:41;61214.50;;;-144.06;58.50
11017;BME280;54687;50.800;6.772;2023-01-28T04:26:07;61237.56;;;-144.06;58.37
11017;BME280;54687;50.800;6.772;2023-01-28T04:28:34;61204.00;;;-144.06;58.43
11017;BME280;54687;50.800;6.772;2023-01-28T04:31:00;61210.31;;;-144.06;58.39
11017;BME280;54687;50.800;6.772;2023-01-28T04:33:27;61197.72;;;-144.06;58.24
11017;BME280;54687;50.800;6.772;2023-01-28T04:35:53;61206.09;;;-144.06;58.20
11017;BME280;54687;50.800;6.772;2023-01-28T04:38:20;61227.06;;;-144.06;58.09
11017;BME280;54687;50.800;6.772;2023-01-28T04:40:49;61206.09;;;-144.06;58.20
11017;BME280;54687;50.800;6.772;2023-01-28T04:43:16;61287.88;;;-144.06;58.12
11017;BME280;54687;50.800;6.772;2023-01-28T04:45:44;61206.09;;;-144.06;58.36
11017;BME280;54687;50.800;6.772;2023-01-28T04:48:11;61285.78;;;-144.06;58.12
11017;BME280;54687;50.800;6.772;2023-01-28T04:50:38;61229.16;;;-144.06;58.37
11017;BME280;54687;50.800;6.772;2023-01-28T04:53:05;61233.38;;;-144.06;57.98
11017;BME280;54687;50.800;6.772;2023-01-28T04:55:31;61220.78;;;-144.06;57.78
11017;BME280;54687;50.800;6.772;2023-01-28T04:57:59;61199.81;;;-144.06;58.14
11017;BME280;54687;50.800;6.772;2023-01-28T05:00:26;61218.69;;;-144.06;58.00
11017;BME280;54687;50.800;6.772;2023-01-28T05:02:53;61248.03;;;-144.06;58.07
11017;BME280;54687;50.800;6.772;2023-01-28T05:05:19;61227.06;;;-144.06;57.68
11017;BME280;54687;50.800;6.772;2023-01-28T05:07:50;61220.78;;;-144.06;57.71
11017;BME280;54687;50.800;6.772;2023-01-28T05:10:17;61248.03;;;-144.06;57.66
11017;BME280;54687;50.800;6.772;2023-01-28T05:12:45;61216.59;;;-144.06;57.80
11017;BME280;54687;50.800;6.772;2023-01-28T05:15:13;61214.50;;;-144.06;57.82
11017;BME280;54687;50.800;6.772;2023-01-28T05:17:40;61197.72;;;-144.06;57.55
11017;BME280;54687;50.800;6.772;2023-01-28T05:20:08;61222.88;;;-144.06;57.97
11017;BME280;54687;50.800;6.772;2023-01-28T05:22:35;61210.31;;;-144.06;57.77
11017;BME280;54687;50.800;6.772;2023-01-28T05:25:01;61214.50;;;-144.06;57.44
11017;BME280;54687;50.800;6.772;2023-01-28T05:27:29;61260.63;;;-144.06;57.69
11017;BME280;54687;50.800;6.772;2023-01-28T05:29:57;61231.25;;;-144.06;57.44
11017;BME280;54687;50.800;6.772;2023-01-28T05:32:25;61269.00;;;-144.06;57.66
11017;BME280;54687;50.800;6.772;2023-01-28T05:34:51;61248.03;;;-144.06;57.50
11017;BME280;54687;50.800;6.772;2023-01-28T05:37:18;61224.97;;;-144.06;57.61
11017;BME280;54687;50.800;6.772;2023-01-28T05:39:44;61220.78;;;-144.06;57.39
11017;BME280;54687;50.800;6.772;2023-01-28T05:42:11;61168.38;;;-144.06;57.58
11017;BME280;54687;50.800;6.772;2023-01-28T05:44:39;61229.16;;;-144.06;57.66
11017;BME280;54687;50.800;6.772;2023-01-28T05:47:06;61222.88;;;-144.06;57.78
11017;BME280;54687;50.800;6.772;2023-01-28T05:49:34;61193.53;;;-144.06;57.70
11017;BME280;54687;50.800;6.772;2023-01-28T05:52:00;61222.88;;;-144.06;57.34
11017;BME280;54687;50.800;6.772;2023-01-28T05:54:27;61185.16;;;-144.06;57.34
11017;BME280;54687;50.800;6.772;2023-01-28T05:56:54;61193.53;;;-144.06;57.40
11017;BME280;54687;50.800;6.772;2023-01-28T05:59:21;61252.22;;;-144.06;57.65
11017;BME280;54687;50.800;6.772;2023-01-28T06:01:48;61235.47;;;-144.06;57.44
11017;BME280;54687;50.800;6.772;2023-01-28T06:04:14;61210.31;;;-144.06;57.28
11017;BME280;54687;50.800;6.772;2023-01-28T06:06:44;61210.31;;;-144.06;57.27
11017;BME280;54687;50.800;6.772;2023-01-28T06:09:11;61214.50;;;-144.06;57.07
11017;BME280;54687;50.800;6.772;2023-01-28T06:11:37;61197.72;;;-144.06;57.14
11017;BME280;54687;50.800;6.772;2023-01-28T06:14:04;61189.34;;;-144.06;57.32
11017;BME280;54687;50.800;6.772;2023-01-28T06:16:31;61172.56;;;-144.06;57.49
11017;BME280;54687;50.800;6.772;2023-01-28T06:18:57;61210.31;;;-144.06;57.21
11017;BME280;54687;50.800;6.772;2023-01-28T06:21:24;61269.00;;;-144.06;56.79
11017;BME280;54687;50.800;6.772;2023-01-28T06:23:51;61191.44;;;-144.06;56.99
11017;BME280;54687;50.800;6.772;2023-01-28T06:26:18;61189.34;;;-144.06;56.95
11017;BME280;54687;50.800;6.772;2023-01-28T06:28:45;61187.25;;;-144.06;57.17
11017;BME280;54687;50.800;6.772;2023-01-28T06:31:11;61197.72;;;-144.06;56.97
11017;BME280;54687;50.800;6.772;2023-01-28T06:33:38;61195.63;;;-144.06;57.00
11017;BME280;54687;50.800;6.772;2023-01-28T06:36:06;61264.81;;;-144.06;57.15
11017;BME280;54687;50.800;6.772;2023-01-28T06:38:32;61214.50;;;-144.06;56.75
11017;BME280;54687;50.800;6.772;2023-01-28T06:41:00;61206.09;;;-144.06;57.41
11017;BME280;54687;50.800;6.772;2023-01-28T06:43:27;61222.88;;;-144.06;57.46
11017;BME280;54687;50.800;6.772;2023-01-28T06:45:55;61275.28;;;-144.06;57.39
11017;BME280;54687;50.800;6.772;2023-01-28T06:48:22;61176.75;;;-144.06;57.13
11017;BME280;54687;50.800;6.772;2023-01-28T06:50:49;61218.69;;;-144.06;57.26
11017;BME280;54687;50.800;6.772;2023-01-28T06:53:17;61227.06;;;-144.06;57.34
11017;BME280;54687;50.800;6.772;2023-01-28T06:55:44;61201.91;;;-144.06;57.38
11017;BME280;54687;50.800;6.772;2023-01-28T06:58:12;61189.34;;;-144.06;57.25
11017;BME280;54687;50.800;6.772;2023-01-28T07:00:39;61233.38;;;-144.06;57.40
11017;BME280;54687;50.800;6.772;2023-01-28T07:03:05;61252.22;;;-144.06;57.30
11017;BME280;54687;50.800;6.772;2023-01-28T07:05:32;61210.31;;;-144.06;57.54
11017;BME280;54687;50.800;6.772;2023-01-28T07:07:59;61231.25;;;-144.06;57.37
11017;BME280;54687;50.800;6.772;2023-01-28T07:10:26;61252.22;;;-144.06;57.40
11017;BME280;54687;50.800;6.772;2023-01-28T07:12:53;61222.88;;;-144.06;57.17
11017;BME280;54687;50.800;6.772;2023-01-28T07:15:21;61216.59;;;-144.06;57.17
11017;BME280;54687;50.800;6.772;2023-01-28T07:17:48;61252.22;;;-144.06;56.63
11017;BME280;54687;50.800;6.772;2023-01-28T07:20:15;61178.84;;;-144.06;56.76
11017;BME280;54687;50.800;6.772;2023-01-28T07:22:43;61172.56;;;-144.06;57.04
11017;BME280;54687;50.800;6.772;2023-01-28T07:25:11;61239.66;;;-144.06;56.66
11017;BME280;54687;50.800;6.772;2023-01-28T07:27:38;61252.22;;;-144.06;56.56
11017;BME280;54687;50.800;6.772;2023-01-28T07:30:06;61210.31;;;-144.06;56.80
11017;BME280;54687;50.800;6.772;2023-01-28T07:32:34;61191.44;;;-144.06;56.58
11017;BME280;54687;50.800;6.772;2023-01-28T07:35:00;61245.94;;;-144.06;55.87
11017;BME280;54687;50.800;6.772;2023-01-28T07:37:27;61222.88;;;-144.06;56.24
11017;BME280;54687;50.800;6.772;2023-01-28T07:39:53;61214.50;;;-144.06;56.46
11017;BME280;54687;50.800;6.772;2023-01-28T07:42:20;61260.63;;;-144.06;56.08
11017;BME280;54687;50.800;6.772;2023-01-28T07:44:47;61227.06;;;-144.06;56.22
11017;BME280;54687;50.800;6.772;2023-01-28T07:47:14;61248.03;;;-144.06;55.24
11017;BME280;54687;50.800;6.772;2023-01-28T07:49:42;61206.09;;;-144.06;54.90
11017;BME280;54687;50.800;6.772;2023-01-28T07:52:08;61176.75;;;-144.06;54.61
11017;BME280;54687;50.800;6.772;2023-01-28T07:54:35;61222.88;;;-144.06;55.20
11017;BME280;54687;50.800;6.772;2023-01-28T07:57:06;61189.34;;;-144.06;55.29
11017;BME280;54687;50.800;6.772;2023-01-28T07:59:34;61220.78;;;-144.06;55.59
11017;BME280;54687;50.800;6.772;2023-01-28T08:02:00;61206.09;;;-144.06;55.79
11017;BME280;54687;50.800;6.772;2023-01-28T08:04:27;61204.00;;;-144.06;55.31
11017;BME280;54687;50.800;6.772;2023-01-28T08:06:55;61206.09;;;-144.06;55.54
11017;BME280;54687;50.800;6.772;2023-01-28T08:09:22;61218.69;;;-144.06;55.62
11017;BME280;54687;50.800;6.772;2023-01-28T08:11:49;61218.69;;;-144.06;55.59
11017;BME280;54687;50.800;6.772;2023-01-28T08:14:16;61189.34;;;-144.06;55.83
11017;BME280;54687;50.800;6.772;2023-01-28T08:16:42;61176.75;;;-144.06;55.45
11017;BME280;54687;50.800;6.772;2023-01-28T08:19:09;61212.41;;;-144.06;54.74
11017;BME280;54687;50.800;6.772;2023-01-28T08:21:36;61235.47;;;-144.06;55.24
11017;BME280;54687;50.800;6.772;2023-01-28T08:24:05;61180.97;;;-144.06;54.88
11017;BME280;54687;50.800;6.772;2023-01-28T08:26:31;61214.50;;;-144.06;55.13
11017;BME280;54687;50.800;6.772;2023-01-28T08:28:58;61210.31;;;-144.06;55.25
11017;BME280;54687;50.800;6.772;2023-01-28T08:31:26;61245.94;;;-144.06;54.52
11017;BME280;54687;50.800;6.772;2023-01-28T08:33:53;61222.88;;;-144.06;53.90
11017;BME280;54687;50.800;6.772;2023-01-28T08:36:20;61227.06;;;-144.06;54.07
11017;BME280;54687;50.800;6.772;2023-01-28T08:38:50;61239.66;;;-144.06;54.25
11017;BME280;54687;50.800;6.772;2023-01-28T08:41:19;61214.50;;;-144.06;53.88
11017;BME280;54687;50.800;6.772;2023-01-28T08:43:46;61235.47;;;-144.06;52.76
11017;BME280;54687;50.800;6.772;2023-01-28T08:46:13;61204.00;;;-144.06;52.75
11017;BME280;54687;50.800;6.772;2023-01-28T08:48:40;61235.47;;;-144.06;52.90
11017;BME280;54687;50.800;6.772;2023-01-28T08:51:07;61248.03;;;-144.06;52.26
11017;BME280;54687;50.800;6.772;2023-01-28T08:53:33;61201.91;;;-144.06;52.35
11017;BME280;54687;50.800;6.772;2023-01-28T08:56:00;61231.25;;;-144.06;51.92
11017;BME280;54687;50.800;6.772;2023-01-28T08:58:28;61206.09;;;-144.06;52.53
11017;BME280;54687;50.800;6.772;2023-01-28T09:00:55;61189.34;;;-144.06;52.68
11017;BME280;54687;50.800;6.772;2023-01-28T09:03:22;61185.16;;;-144.06;52.91
11017;BME280;54687;50.800;6.772;2023-01-28T09:05:48;61212.41;;;-144.06;52.82
11017;BME280;54687;50.800;6.772;2023-01-28T09:08:15;61243.84;;;-144.06;51.92
11017;BME280;54687;50.800;6.772;2023-01-28T09:10:41;61206.09;;;-144.06;52.21
11017;BME280;54687;50.800;6.772;2023-01-28T09:13:10;61231.25;;;-144.06;52.39
11017;BME280;54687;50.800;6.772;2023-01-28T09:15:38;61216.59;;;-144.06;52.23
11017;BME280;54687;50.800;6.772;2023-01-28T09:18:05;61214.50;;;-144.06;52.12
11017;BME280;54687;50.800;6.772;2023-01-28T09:20:32;61222.88;;;-144.06;51.90
11017;BME280;54687;50.800;6.772;2023-01-28T09:22:59;61237.56;;;-144.06;52.28
11017;BME280;54687;50.800;6.772;2023-01-28T09:25:26;61231.25;;;-144.06;52.39
11017;BME280;54687;50.800;6.772;2023-01-28T09:27:53;61229.16;;;-144.06;51.68
11017;BME280;54687;50.800;6.772;2023-01-28T09:30:19;61180.97;;;-144.06;51.63
11017;BME280;54687;50.800;6.772;2023-01-28T09:32:50;61214.50;;;-144.06;51.80
11017;BME280;54687;50.800;6.772;2023-01-28T09:35:17;61243.84;;;-144.06;51.11
11017;BME280;54687;50.800;6.772;2023-01-28T09:37:43;61185.16;;;-144.06;51.04
11017;BME280;54687;50.800;6.772;2023-01-28T09:40:14;61180.97;;;-144.06;51.03
11017;BME280;54687;50.800;6.772;2023-01-28T09:43:03;61222.88;;;-144.06;50.76
11017;BME280;54687;50.800;6.772;2023-01-28T09:45:38;61210.31;;;-144.06;50.53
11017;BME280;54687;50.800;6.772;2023-01-28T09:48:12;61185.16;;;-144.06;50.96
11017;BME280;54687;50.800;6.772;2023-01-28T09:50:41;61224.97;;;-144.06;51.49
11017;BME280;54687;50.800;6.772;2023-01-28T09:53:12;61185.16;;;-144.06;51.31
11017;BME280;54687;50.800;6.772;2023-01-28T09:55:43;61185.16;;;-144.06;51.75
11017;BME280;54687;50.800;6.772;2023-01-28T09:58:12;61206.09;;;-144.06;51.18
11017;BME280;54687;50.800;6.772;2023-01-28T10:00:46;61235.47;;;-144.06;50.99
11017;BME280;54687;50.800;6.772;2023-01-28T10:03:35;61187.25;;;-144.06;51.04
11017;BME280;54687;50.800;6.772;2023-01-28T10:06:12;61204.00;;;-144.06;51.57
11017;BME280;54687;50.800;6.772;2023-01-28T10:09:02;61193.53;;;-144.06;51.38
11017;BME280;54687;50.800;6.772;2023-01-28T10:11:45;61206.09;;;-144.06;50.93
11017;BME280;54687;50.800;6.772;2023-01-28T10:14:20;61212.41;;;-144.06;50.62
11017;BME280;54687;50.800;6.772;2023-01-28T10:16:51;61199.81;;;-144.06;50.38
11017;BME280;54687;50.800;6.772;2023-01-28T10:19:25;61197.72;;;-144.06;50.79
11017;BME280;54687;50.800;6.772;2023-01-28T10:21:56;61222.88;;;-144.06;49.66
11017;BME280;54687;50.800;6.772;2023-01-28T10:24:28;61168.38;;;-144.06;49.52
11017;BME280;54687;50.800;6.772;2023-01-28T10:26:56;61239.66;;;-144.06;48.61
11017;BME280;54687;50.800;6.772;2023-01-28T10:29:26;61237.56;;;-144.06;49.00
11017;BME280;54687;50.800;6.772;2023-01-28T10:31:59;61222.88;;;-144.06;49.28
11017;BME280;54687;50.800;6.772;2023-01-28T10:34:29;61210.31;;;-144.06;49.15
11017;BME280;54687;50.800;6.772;2023-01-28T10:36:56;61218.69;;;-144.06;49.57
11017;BME280;54687;50.800;6.772;2023-01-28T10:39:24;61197.72;;;-144.06;48.88
11017;BME280;54687;50.800;6.772;2023-01-28T10:41:51;61227.06;;;-144.06;48.63
11017;BME280;54687;50.800;6.772;2023-01-28T10:44:20;61208.22;;;-144.06;48.71
11017;BME280;54687;50.800;6.772;2023-01-28T10:46:53;61235.47;;;-144.06;48.58
11017;BME280;54687;50.800;6.772;2023-01-28T10:49:26;61176.75;;;-144.06;49.16
11017;BME280;54687;50.800;6.772;2023-01-28T10:51:54;61130.66;;;-144.06;48.41
11017;BME280;54687;50.800;6.772;2023-01-28T10:54:23;61168.38;;;-144.06;48.32
11017;BME280;54687;50.800;6.772;2023-01-28T10:56:53;61208.22;;;-144.06;48.54
11017;BME280;54687;50.800;6.772;2023-01-28T10:59:25;61252.22;;;-144.06;48.18
11017;BME280;54687;50.800;6.772;2023-01-28T11:01:53;61252.22;;;-144.06;48.98
11017;BME280;54687;50.800;6.772;2023-01-28T11:04:23;61168.38;;;-144.06;48.95
11017;BME280;54687;50.800;6.772;2023-01-28T11:06:57;61201.91;;;-144.06;49.15
11017;BME280;54687;50.800;6.772;2023-01-28T11:09:26;61183.06;;;-144.06;48.76
11017;BME280;54687;50.800;6.772;2023-01-28T11:11:53;61227.06;;;-144.06;48.73
11017;BME280;54687;50.800;6.772;2023-01-28T11:14:21;61183.06;;;-144.06;48.57
11017;BME280;54687;50.800;6.772;2023-01-28T11:16:50;61224.97;;;-144.06;48.78
11017;BME280;54687;50.800;6.772;2023-01-28T11:19:18;61208.22;;;-144.06;48.31
11017;BME280;54687;50.800;6.772;2023-01-28T11:21:48;61214.50;;;-144.06;48.83
11017;BME280;54687;50.800;6.772;2023-01-28T11:24:20;61166.28;;;-144.06;49.34
11017;BME280;54687;50.800;6.772;2023-01-28T11:26:49;61233.38;;;-144.06;48.97
11017;BME280;54687;50.800;6.772;2023-01-28T11:29:21;61143.22;;;-144.06;48.76
11017;BME280;54687;50.800;6.772;2023-01-28T11:31:49;61174.66;;;-144.06;48.88
11017;BME280;54687;50.800;6.772;2023-01-28T11:34:17;61206.09;;;-144.06;48.86
11017;BME280;54687;50.800;6.772;2023-01-28T11:36:52;61197.72;;;-144.06;47.73
11017;BME280;54687;50.800;6.772;2023-01-28T11:39:23;61191.44;;;-144.06;47.32
11017;BME280;54687;50.800;6.772;2023-01-28T11:41:53;61208.22;;;-144.06;47.48
11017;BME280;54687;50.800;6.772;2023-01-28T11:44:21;61189.34;;;-144.06;46.62
11017;BME280;54687;50.800;6.772;2023-01-28T11:46:59;61189.34;;;-144.06;46.63
11017;BME280;54687;50.800;6.772;2023-01-28T11:49:40;61229.16;;;-144.06;46.70
11017;BME280;54687;50.800;6.772;2023-01-28T11:52:18;61224.97;;;-144.06;46.38
11017;BME280;54687;50.800;6.772;2023-01-28T11:54:58;61162.09;;;-144.06;46.26
11017;BME280;54687;50.800;6.772;2023-01-28T11:57:33;61197.72;;;-144.06;46.33
11017;BME280;54687;50.800;6.772;2023-01-28T12:00:19;61197.72;;;-144.06;46.72
11017;BME280;54687;50.800;6.772;2023-01-28T12:02:52;61174.66;;;-144.06;47.17
11017;BME280;54687;50.800;6.772;2023-01-28T12:05:34;61172.56;;;-144.06;47.15
11017;BME280;54687;50.800;6.772;2023-01-28T12:08:08;61164.19;;;-144.06;47.56
11017;BME280;54687;50.800;6.772;2023-01-28T12:10:45;61189.34;;;-144.06;46.77
11017;BME280;54687;50.800;6.772;2023-01-28T12:13:24;61197.72;;;-144.06;46.82
11017;BME280;54687;50.800;6.772;2023-01-28T12:16:04;61185.16;;;-144.06;47.21
11017;BME280;54687;50.800;6.772;2023-01-28T12:21:55;61208.22;;;-144.06;46.43
11017;BME280;54687;50.800;6.772;2023-01-28T12:24:34;61185.16;;;-144.06;47.35
11017;BME280;54687;50.800;6.772;2023-01-28T12:27:13;61222.88;;;-144.06;47.31
11017;BME280;54687;50.800;6.772;2023-01-28T12:29:50;61197.72;;;-144.06;47.02
11017;BME280;54687;50.800;6.772;2023-01-28T12:32:35;61201.91;;;-144.06;46.68
11017;BME280;54687;50.800;6.772;2023-01-28T12:35:26;61189.34;;;-144.06;46.93
11017;BME280;54687;50.800;6.772;2023-01-28T12:38:06;61195.63;;;-144.06;46.52
11017;BME280;54687;50.800;6.772;2023-01-28T12:40:46;61180.97;;;-144.06;46.79
11017;BME280;54687;50.800;6.772;2023-01-28T12:43:21;61229.16;;;-144.06;46.46
11017;BME280;54687;50.800;6.772;2023-01-28T12:45:54;61195.63;;;-144.06;46.75
11017;BME280;54687;50.800;6.772;2023-01-28T12:48:26;61176.75;;;-144.06;46.43
11017;BME280;54687;50.800;6.772;2023-01-28T12:50:59;61195.63;;;-144.06;46.33
11017;BME280;54687;50.800;6.772;2023-01-28T12:53:33;61227.06;;;-144.06;46.58
11017;BME280;54687;50.800;6.772;2023-01-28T12:56:06;61252.22;;;-144.06;46.19
11017;BME280;54687;50.800;6.772;2023-01-28T12:58:39;61212.41;;;-144.06;46.33
11017;BME280;54687;50.800;6.772;2023-01-28T13:01:12;61210.31;;;-144.06;46.53